| time (UTC) | temp F | wind direction | speed knots | gust knots | rain 1hr in | rain 24hr in | rain mn in | humidity % | barometer mb |
| 20260508231157 | 54 | 204 | 4.3 | 6.1 | 0.00 | 0.00 | 0.00 | 50 | 1011.8 |
| 20260508230156 | 54 | 205 | 10.4 | 13.0 | 0.00 | 0.00 | 0.00 | 51 | 1011.9 |
| 20260508225155 | 55 | 213 | 4.3 | 6.1 | 0.00 | 0.00 | 0.00 | 49 | 1011.9 |
| 20260508224151 | 54 | 149 | 2.6 | 8.7 | 0.00 | 0.00 | 0.00 | 50 | 1011.9 |
| 20260508223146 | 54 | 191 | 4.3 | 6.1 | 0.00 | 0.00 | 0.00 | 51 | 1012.0 |
| 20260508222146 | 54 | 187 | 8.7 | 13.0 | 0.00 | 0.00 | 0.00 | 51 | 1012.0 |
| 20260508221144 | 55 | 245 | 3.5 | 7.0 | 0.00 | 0.00 | 0.00 | 49 | 1012.0 |
| 20260508220143 | 54 | 161 | 6.1 | 8.7 | 0.00 | 0.00 | 0.00 | 51 | 1012.3 |
| 20260508215142 | 56 | 195 | 3.5 | 5.2 | 0.00 | 0.00 | 0.00 | 47 | 1011.8 |
| 20260508214142 | 56 | 226 | 3.5 | 4.3 | 0.00 | 0.00 | 0.00 | 49 | 1011.9 |
| 20260508213141 | 55 | 202 | 5.2 | 7.8 | 0.00 | 0.00 | 0.00 | 49 | 1012.1 |
| 20260508212140 | 55 | 200 | 3.5 | 6.1 | 0.00 | 0.00 | 0.00 | 49 | 1012.1 |
| 20260508211137 | 55 | 182 | 5.2 | 8.7 | 0.00 | 0.00 | 0.00 | 49 | 1011.8 |
| 20260508210137 | 55 | 182 | 5.2 | 6.1 | 0.00 | 0.00 | 0.00 | 46 | 1011.9 |
| 20260508205136 | 55 | 226 | 2.6 | 4.3 | 0.00 | 0.00 | 0.00 | 45 | 1011.8 |
| 20260508204134 | 55 | 160 | 3.5 | 8.7 | 0.00 | 0.00 | 0.00 | 48 | 1011.6 |
| 20260508203132 | 56 | 180 | 4.3 | 5.2 | 0.00 | 0.00 | 0.00 | 47 | 1011.7 |
| 20260508202131 | 55 | 164 | 2.6 | 4.3 | 0.00 | 0.00 | 0.00 | 43 | 1011.9 |
| 20260508201130 | 55 | 222 | 3.5 | 6.1 | 0.00 | 0.00 | 0.00 | 44 | 1012.3 |
| 20260508200129 | 55 | 185 | 5.2 | 8.7 | 0.00 | 0.00 | 0.00 | 44 | 1012.1 |
| 20260508195128 | 57 | 114 | 0.0 | 0.0 | 0.00 | 0.00 | 0.00 | 45 | 1012.2 |
| 20260508194128 | 54 | 162 | 4.3 | 6.1 | 0.00 | 0.00 | 0.00 | 48 | 1012.5 |
| 20260508193127 | 56 | 217 | 4.3 | 6.1 | 0.00 | 0.00 | 0.00 | 47 | 1012.5 |
| 20260508192127 | 54 | 189 | 2.6 | 5.2 | 0.00 | 0.00 | 0.00 | 49 | 1012.8 |
| 20260508191126 | 55 | 233 | 1.7 | 4.3 | 0.00 | 0.00 | 0.00 | 33 | 1012.9 |
| 20260508190126 | 56 | 267 | 2.6 | 4.3 | 0.00 | 0.00 | 0.00 | 33 | 1012.8 |
| 20260508185126 | 56 | 173 | 2.6 | 4.3 | 0.00 | 0.00 | 0.00 | 31 | 1012.9 |
| 20260508184126 | 55 | 202 | 0.9 | 1.7 | 0.00 | 0.00 | 0.00 | 34 | 1012.9 |
| 20260508183124 | 55 | 339 | 5.2 | 7.8 | 0.00 | 0.00 | 0.00 | 33 | 1013.0 |
| 20260508182123 | 55 | 212 | 6.1 | 8.7 | 0.00 | 0.00 | 0.00 | 34 | 1013.3 |
| 20260508181122 | 54 | 313 | 2.6 | 5.2 | 0.00 | 0.00 | 0.00 | 34 | 1013.6 |
| 20260508180121 | 54 | 161 | 1.7 | 2.6 | 0.00 | 0.00 | 0.00 | 36 | 1013.5 |
| 20260508175120 | 54 | 291 | 4.3 | 7.8 | 0.00 | 0.00 | 0.00 | 37 | 1013.7 |
| 20260508174121 | 53 | 70 | 0.0 | 0.0 | 0.00 | 0.00 | 0.00 | 36 | 1013.5 |
| 20260508173119 | 53 | 257 | 0.9 | 1.7 | 0.00 | 0.00 | 0.00 | 37 | 1013.8 |
| 20260508172119 | 54 | 215 | 0.0 | 0.0 | 0.00 | 0.00 | 0.00 | 36 | 1013.9 |
| 20260508171118 | 53 | 343 | 3.5 | 5.2 | 0.00 | 0.00 | 0.00 | 39 | 1013.8 |
| 20260508170118 | 53 | 268 | 2.6 | 4.3 | 0.00 | 0.00 | 0.00 | 38 | 1014.1 |
| 20260508165118 | 52 | 237 | 0.0 | 0.0 | 0.00 | 0.00 | 0.00 | 40 | 1014.0 |
| 20260508164117 | 52 | 220 | 4.3 | 5.2 | 0.00 | 0.00 | 0.00 | 39 | 1013.9 |
| 20260508163117 | 52 | 225 | 1.7 | 2.6 | 0.00 | 0.00 | 0.00 | 39 | 1014.4 |
| 20260508162117 | 52 | 242 | 3.5 | 5.2 | 0.00 | 0.00 | 0.00 | 41 | 1014.5 |
| 20260508161117 | 51 | 224 | 0.0 | 0.0 | 0.00 | 0.00 | 0.00 | 44 | 1014.5 |
| 20260508160112 | 52 | 259 | 0.0 | 0.0 | 0.00 | 0.00 | 0.00 | 43 | 1014.6 |
| 20260508155112 | 51 | 287 | 1.7 | 4.3 | 0.00 | 0.00 | 0.00 | 46 | 1014.9 |
| 20260508154112 | 50 | 257 | 0.0 | 0.9 | 0.00 | 0.00 | 0.00 | 45 | 1014.6 |
| 20260508153111 | 50 | 247 | 0.9 | 1.7 | 0.00 | 0.00 | 0.00 | 45 | 1014.7 |
| 20260508152109 | 50 | 199 | 0.9 | 1.7 | 0.00 | 0.00 | 0.00 | 47 | 1014.8 |
| 20260508151109 | 50 | 273 | 5.2 | 7.8 | 0.00 | 0.00 | 0.00 | 49 | 1014.6 |
| 20260508150108 | 49 | 152 | 3.5 | 5.2 | 0.00 | 0.00 | 0.00 | 51 | 1014.9 |
| 20260508145107 | 48 | 297 | 0.0 | 0.0 | 0.00 | 0.00 | 0.00 | 51 | 1015.1 |
| 20260508144102 | 49 | 309 | 1.7 | 1.7 | 0.00 | 0.00 | 0.00 | 54 | 1015.2 |
| 20260508143102 | 48 | 244 | 2.6 | 4.3 | 0.00 | 0.00 | 0.00 | 56 | 1015.0 |
| 20260508142101 | 48 | 345 | 0.0 | 0.0 | 0.00 | 0.00 | 0.00 | 57 | 1015.1 |
| 20260508141101 | 48 | 224 | 0.0 | 0.9 | 0.00 | 0.00 | 0.00 | 61 | 1014.9 |
| 20260508140101 | 47 | 187 | 2.6 | 7.0 | 0.00 | 0.00 | 0.00 | 62 | 1014.9 |
| 20260508135058 | 47 | 249 | 0.9 | 1.7 | 0.00 | 0.00 | 0.00 | 64 | 1014.8 |
| 20260508134058 | 47 | 177 | 0.0 | 0.0 | 0.00 | 0.00 | 0.00 | 65 | 1014.8 |
| 20260508133058 | 46 | 227 | 1.7 | 2.6 | 0.00 | 0.00 | 0.00 | 69 | 1014.8 |
| 20260508132058 | 46 | 232 | 2.6 | 4.3 | 0.00 | 0.00 | 0.00 | 70 | 1014.8 |
| 20260508131057 | 45 | 234 | 0.9 | 0.9 | 0.00 | 0.00 | 0.00 | 70 | 1014.8 |
| 20260508130055 | 45 | 314 | 3.5 | 6.1 | 0.00 | 0.00 | 0.00 | 72 | 1014.7 |
| 20260508125055 | 45 | 261 | 0.9 | 2.6 | 0.00 | 0.00 | 0.00 | 72 | 1014.6 |
| 20260508124055 | 45 | 199 | 0.0 | 0.0 | 0.00 | 0.00 | 0.00 | 73 | 1014.6 |
| 20260508123050 | 44 | 198 | 0.0 | 0.0 | 0.00 | 0.00 | 0.00 | 75 | 1014.8 |
| 20260508122049 | 44 | 228 | 0.9 | 0.9 | 0.00 | 0.00 | 0.00 | 75 | 1014.7 |
| 20260508121045 | 44 | 278 | 0.0 | 0.0 | 0.00 | 0.00 | 0.00 | 76 | 1014.7 |
| 20260508120041 | 43 | 252 | 0.0 | 0.0 | 0.00 | 0.00 | 0.00 | 77 | 1014.6 |
| 20260508115039 | 43 | 215 | 0.9 | 4.3 | 0.00 | 0.00 | 0.00 | 77 | 1014.5 |
| 20260508114039 | 42 | 245 | 2.6 | 5.2 | 0.00 | 0.00 | 0.00 | 77 | 1014.4 |
| 20260508113034 | 42 | 216 | 0.0 | 0.9 | 0.00 | 0.00 | 0.00 | 78 | 1014.4 |
| 20260508112033 | 42 | 218 | 0.0 | 0.0 | 0.00 | 0.00 | 0.00 | 78 | 1014.2 |
| 20260508111032 | 42 | 242 | 0.0 | 0.0 | 0.00 | 0.00 | 0.00 | 79 | 1014.2 |
| 20260508110032 | 41 | 208 | 0.0 | 0.0 | 0.00 | 0.00 | 0.00 | 79 | 1014.3 |
| 20260508105030 | 41 | 220 | 0.9 | 1.7 | 0.00 | 0.00 | 0.00 | 79 | 1014.3 |
| 20260508104030 | 41 | 191 | 0.0 | 0.9 | 0.00 | 0.00 | 0.00 | 79 | 1014.2 |
| 20260508103025 | 41 | 221 | 0.0 | 0.0 | 0.00 | 0.00 | 0.00 | 80 | 1014.3 |
| 20260508102020 | 41 | 204 | 0.0 | 0.9 | 0.00 | 0.00 | 0.00 | 81 | 1014.3 |
| 20260508101020 | 41 | 201 | 0.0 | 0.0 | 0.00 | 0.00 | 0.00 | 82 | 1014.3 |
| 20260508100020 | 41 | 201 | 0.0 | 0.0 | 0.00 | 0.00 | 0.00 | 81 | 1014.1 |
| 20260508095020 | 41 | 201 | 0.0 | 0.0 | 0.00 | 0.00 | 0.00 | 81 | 1014.2 |
| 20260508094020 | 41 | 201 | 0.0 | 0.0 | 0.00 | 0.00 | 0.00 | 81 | 1014.3 |
| 20260508093015 | 41 | 201 | 0.0 | 0.0 | 0.00 | 0.00 | 0.00 | 81 | 1014.1 |
| 20260508092011 | 41 | 202 | 0.9 | 1.7 | 0.00 | 0.00 | 0.00 | 82 | 1014.2 |
| 20260508091009 | 41 | 202 | 0.0 | 0.0 | 0.00 | 0.00 | 0.00 | 81 | 1014.3 |
| 20260508090009 | 41 | 202 | 0.0 | 0.0 | 0.00 | 0.00 | 0.00 | 82 | 1014.1 |
| 20260508085009 | 41 | 204 | 0.0 | 0.9 | 0.00 | 0.00 | 0.00 | 82 | 1014.3 |
| 20260508084010 | 41 | 202 | 0.0 | 0.0 | 0.00 | 0.00 | 0.00 | 82 | 1014.2 |
| 20260508083009 | 41 | 219 | 0.0 | 0.0 | 0.00 | 0.00 | 0.00 | 82 | 1014.4 |
| 20260508082008 | 41 | 216 | 2.6 | 4.3 | 0.00 | 0.00 | 0.00 | 82 | 1014.3 |
| 20260508081007 | 41 | 216 | 0.9 | 1.7 | 0.00 | 0.00 | 0.00 | 83 | 1014.3 |
| 20260508080002 | 41 | 226 | 0.9 | 0.9 | 0.00 | 0.00 | 0.00 | 83 | 1014.5 |
| 20260508074957 | 41 | 225 | 2.6 | 2.6 | 0.00 | 0.00 | 0.00 | 83 | 1014.4 |
| 20260508073956 | 41 | 244 | 0.9 | 2.6 | 0.00 | 0.00 | 0.00 | 83 | 1014.3 |
| 20260508072956 | 41 | 231 | 0.0 | 0.9 | 0.00 | 0.00 | 0.00 | 83 | 1014.4 |
| 20260508071955 | 41 | 280 | 1.7 | 2.6 | 0.00 | 0.00 | 0.00 | 83 | 1014.5 |
| 20260508070951 | 40 | 250 | 0.0 | 0.0 | 0.00 | 0.00 | 0.00 | 84 | 1014.5 |
| 20260508065946 | 40 | 313 | 1.7 | 2.6 | 0.00 | 0.00 | 0.00 | 84 | 1014.7 |
| 20260508064942 | 41 | 315 | 0.9 | 2.6 | 0.00 | 0.00 | 0.00 | 83 | 1014.7 |
| 20260508063942 | 41 | 315 | 1.7 | 2.6 | 0.00 | 0.00 | 0.00 | 81 | 1014.8 |
| 20260508062937 | 41 | 304 | 0.0 | 0.0 | 0.00 | 0.00 | 0.00 | 79 | 1014.9 |
| 20260508061937 | 42 | 254 | 0.0 | 0.0 | 0.00 | 0.00 | 0.00 | 78 | 1014.9 |
| 20260508060937 | 42 | 277 | 0.9 | 2.6 | 0.00 | 0.00 | 0.00 | 76 | 1015.2 |
| 20260508055936 | 43 | 262 | 1.7 | 2.6 | 0.00 | 0.00 | 0.00 | 71 | 1014.9 |
| 20260508054935 | 43 | 258 | 3.5 | 4.3 | 0.00 | 0.00 | 0.00 | 69 | 1015.2 |
| 20260508053935 | 42 | 222 | 0.0 | 0.0 | 0.00 | 0.00 | 0.00 | 71 | 1015.1 |
| 20260508052930 | 42 | 189 | 0.0 | 0.0 | 0.00 | 0.00 | 0.00 | 69 | 1014.9 |
| 20260508051929 | 42 | 203 | 0.0 | 0.0 | 0.00 | 0.00 | 0.00 | 70 | 1015.0 |
| 20260508050927 | 42 | 197 | 0.0 | 0.0 | 0.00 | 0.00 | 0.00 | 69 | 1015.2 |
| 20260508045926 | 42 | 193 | 0.0 | 0.0 | 0.00 | 0.00 | 0.00 | 66 | 1014.9 |
| 20260508044921 | 42 | 185 | 0.0 | 0.0 | 0.00 | 0.00 | 0.00 | 66 | 1015.1 |
| 20260508043919 | 42 | 196 | 0.0 | 0.0 | 0.00 | 0.00 | 0.00 | 65 | 1015.3 |
| 20260508042919 | 42 | 212 | 0.0 | 0.0 | 0.00 | 0.00 | 0.00 | 68 | 1015.4 |
| 20260508041914 | 41 | 184 | 0.9 | 0.9 | 0.00 | 0.00 | 0.00 | 73 | 1015.2 |
| 20260508040913 | 41 | 183 | 0.0 | 0.0 | 0.00 | 0.00 | 0.00 | 74 | 1015.1 |
| 20260508035908 | 42 | 231 | 0.0 | 0.0 | 0.00 | 0.00 | 0.00 | 73 | 1015.1 |
| 20260508034907 | 42 | 232 | 0.0 | 0.0 | 0.00 | 0.00 | 0.00 | 71 | 1015.0 |
| 20260508033907 | 42 | 234 | 0.0 | 0.0 | 0.00 | 0.00 | 0.00 | 68 | 1015.0 |
| 20260508032903 | 42 | 238 | 0.0 | 0.0 | 0.00 | 0.00 | 0.00 | 65 | 1015.0 |
| 20260508031902 | 42 | 283 | 0.0 | 0.0 | 0.00 | 0.00 | 0.00 | 66 | 1014.8 |
| 20260508030901 | 42 | 285 | 0.0 | 0.0 | 0.00 | 0.00 | 0.00 | 67 | 1015.1 |
| 20260508025856 | 42 | 324 | 0.0 | 0.0 | 0.00 | 0.00 | 0.00 | 68 | 1015.1 |
| 20260508024855 | 42 | 328 | 0.0 | 0.0 | 0.00 | 0.00 | 0.00 | 67 | 1015.1 |
| 20260508023854 | 43 | 323 | 0.0 | 0.0 | 0.00 | 0.00 | 0.00 | 67 | 1015.0 |
| 20260508022854 | 43 | 296 | 0.0 | 0.0 | 0.00 | 0.00 | 0.00 | 66 | 1015.1 |
| 20260508021852 | 43 | 311 | 0.0 | 0.0 | 0.00 | 0.00 | 0.00 | 67 | 1014.9 |
| 20260508020850 | 43 | 314 | 0.0 | 0.0 | 0.00 | 0.00 | 0.00 | 68 | 1015.0 |
| 20260508015845 | 43 | 313 | 0.0 | 0.0 | 0.00 | 0.00 | 0.00 | 69 | 1015.0 |
| 20260508014845 | 43 | 308 | 0.0 | 0.0 | 0.00 | 0.00 | 0.00 | 69 | 1015.0 |
| 20260508013843 | 44 | 317 | 0.0 | 0.0 | 0.00 | 0.00 | 0.00 | 69 | 1014.9 |
| 20260508012843 | 44 | 309 | 0.0 | 0.0 | 0.00 | 0.00 | 0.00 | 69 | 1014.7 |
| 20260508011838 | 44 | 321 | 0.0 | 0.0 | 0.00 | 0.00 | 0.00 | 69 | 1014.6 |
| 20260508010838 | 44 | 250 | 0.0 | 0.0 | 0.00 | 0.00 | 0.00 | 70 | 1014.7 |
| 20260508005838 | 44 | 308 | 0.0 | 0.0 | 0.00 | 0.00 | 0.00 | 70 | 1014.4 |
| 20260508004837 | 44 | 227 | 0.0 | 0.0 | 0.00 | 0.00 | 0.00 | 71 | 1014.4 |
| 20260508003835 | 44 | 214 | 0.0 | 0.0 | 0.00 | 0.00 | 0.00 | 71 | 1014.4 |
| 20260508002835 | 45 | 209 | 0.0 | 0.0 | 0.00 | 0.00 | 0.00 | 70 | 1014.1 |
| 20260508001833 | 45 | 213 | 0.0 | 0.0 | 0.00 | 0.00 | 0.00 | 70 | 1014.1 |
| 20260508000832 | 46 | 215 | 0.0 | 0.0 | 0.00 | 0.00 | 0.00 | 68 | 1013.9 |
| 20260507235831 | 46 | 216 | 0.0 | 0.0 | 0.00 | 0.00 | 0.00 | 68 | 1014.1 |
| 20260507234831 | 45 | 229 | 0.0 | 0.0 | 0.00 | 0.00 | 0.00 | 68 | 1014.1 |
| 20260507233829 | 45 | 277 | 0.0 | 0.0 | 0.00 | 0.00 | 0.00 | 69 | 1013.9 |
| 20260507232825 | 45 | 218 | 0.0 | 0.0 | 0.00 | 0.00 | 0.00 | 69 | 1013.9 |
| 20260507231825 | 45 | 265 | 0.0 | 0.0 | 0.00 | 0.00 | 0.00 | 68 | 1014.0 |